sensor_id;sensor_type;location;lat;lon;timestamp;temperature;humidity
18434;DHT22;9344;52.294;13.626;2022-11-09T00:01:38;12.70;99.90
18434;DHT22;9344;52.294;13.626;2022-11-09T00:04:06;12.70;99.90
18434;DHT22;9344;52.294;13.626;2022-11-09T00:06:34;12.80;99.90
18434;DHT22;9344;52.294;13.626;2022-11-09T00:09:02;12.70;99.90
18434;DHT22;9344;52.294;13.626;2022-11-09T00:11:29;12.70;99.90
18434;DHT22;9344;52.294;13.626;2022-11-09T00:13:55;12.70;99.90
18434;DHT22;9344;52.294;13.626;2022-11-09T00:16:22;12.70;99.90
18434;DHT22;9344;52.294;13.626;2022-11-09T00:18:50;12.70;99.90
18434;DHT22;9344;52.294;13.626;2022-11-09T00:21:19;12.70;99.90
18434;DHT22;9344;52.294;13.626;2022-11-09T00:23:47;12.80;99.90
18434;DHT22;9344;52.294;13.626;2022-11-09T00:26:15;12.80;99.90
18434;DHT22;9344;52.294;13.626;2022-11-09T00:28:42;12.70;99.90
18434;DHT22;9344;52.294;13.626;2022-11-09T00:31:10;12.80;99.90
18434;DHT22;9344;52.294;13.626;2022-11-09T00:33:38;12.80;99.90
18434;DHT22;9344;52.294;13.626;2022-11-09T00:36:08;12.80;99.90
18434;DHT22;9344;52.294;13.626;2022-11-09T00:38:36;12.80;99.90
18434;DHT22;9344;52.294;13.626;2022-11-09T00:41:05;12.70;99.90
18434;DHT22;9344;52.294;13.626;2022-11-09T00:43:32;12.80;99.90
18434;DHT22;9344;52.294;13.626;2022-11-09T00:45:59;12.80;99.90
18434;DHT22;9344;52.294;13.626;2022-11-09T00:48:25;12.80;99.90
18434;DHT22;9344;52.294;13.626;2022-11-09T00:50:53;12.80;99.90
18434;DHT22;9344;52.294;13.626;2022-11-09T00:53:22;12.80;99.90
18434;DHT22;9344;52.294;13.626;2022-11-09T00:55:55;12.80;99.90
18434;DHT22;9344;52.294;13.626;2022-11-09T00:58:22;12.80;99.90
18434;DHT22;9344;52.294;13.626;2022-11-09T01:00:49;12.80;99.90
18434;DHT22;9344;52.294;13.626;2022-11-09T01:03:16;12.80;99.90
18434;DHT22;9344;52.294;13.626;2022-11-09T01:05:42;12.80;99.90
18434;DHT22;9344;52.294;13.626;2022-11-09T01:08:09;12.80;99.90
18434;DHT22;9344;52.294;13.626;2022-11-09T01:10:40;12.70;99.90
18434;DHT22;9344;52.294;13.626;2022-11-09T01:13:07;12.70;99.90
18434;DHT22;9344;52.294;13.626;2022-11-09T01:15:39;12.70;99.90
18434;DHT22;9344;52.294;13.626;2022-11-09T01:18:05;12.70;99.90
18434;DHT22;9344;52.294;13.626;2022-11-09T01:20:32;12.70;99.90
18434;DHT22;9344;52.294;13.626;2022-11-09T01:22:58;12.70;99.90
18434;DHT22;9344;52.294;13.626;2022-11-09T01:25:25;12.60;99.90
18434;DHT22;9344;52.294;13.626;2022-11-09T01:27:53;12.60;99.90
18434;DHT22;9344;52.294;13.626;2022-11-09T01:30:19;12.60;99.90
18434;DHT22;9344;52.294;13.626;2022-11-09T01:32:46;12.60;99.90
18434;DHT22;9344;52.294;13.626;2022-11-09T01:35:12;12.60;99.90
18434;DHT22;9344;52.294;13.626;2022-11-09T01:37:39;12.50;99.90
18434;DHT22;9344;52.294;13.626;2022-11-09T01:40:06;12.50;99.90
18434;DHT22;9344;52.294;13.626;2022-11-09T01:42:35;12.50;99.90
18434;DHT22;9344;52.294;13.626;2022-11-09T01:45:25;12.50;99.90
18434;DHT22;9344;52.294;13.626;2022-11-09T01:47:56;12.50;99.90
18434;DHT22;9344;52.294;13.626;2022-11-09T01:50:31;12.40;99.90
18434;DHT22;9344;52.294;13.626;2022-11-09T01:53:01;12.40;99.90
18434;DHT22;9344;52.294;13.626;2022-11-09T01:55:29;12.40;99.90
18434;DHT22;9344;52.294;13.626;2022-11-09T01:57:59;12.40;99.90
18434;DHT22;9344;52.294;13.626;2022-11-09T02:00:28;12.40;99.90
18434;DHT22;9344;52.294;13.626;2022-11-09T02:02:58;12.30;99.90
18434;DHT22;9344;52.294;13.626;2022-11-09T02:05:30;12.30;99.90
18434;DHT22;9344;52.294;13.626;2022-11-09T02:07:58;12.30;99.90
18434;DHT22;9344;52.294;13.626;2022-11-09T02:10:29;12.30;99.90
18434;DHT22;9344;52.294;13.626;2022-11-09T02:12:58;12.30;99.90
18434;DHT22;9344;52.294;13.626;2022-11-09T02:15:25;12.20;99.90
18434;DHT22;9344;52.294;13.626;2022-11-09T02:17:55;12.20;99.90
18434;DHT22;9344;52.294;13.626;2022-11-09T02:20:23;12.20;99.90
18434;DHT22;9344;52.294;13.626;2022-11-09T02:22:50;12.20;99.90
18434;DHT22;9344;52.294;13.626;2022-11-09T02:25:17;12.10;99.90
18434;DHT22;9344;52.294;13.626;2022-11-09T02:27:44;12.10;99.90
18434;DHT22;9344;52.294;13.626;2022-11-09T02:30:12;12.10;99.90
18434;DHT22;9344;52.294;13.626;2022-11-09T02:32:40;12.00;99.90
18434;DHT22;9344;52.294;13.626;2022-11-09T02:35:07;12.00;99.90
18434;DHT22;9344;52.294;13.626;2022-11-09T02:37:38;13.40;99.90
18434;DHT22;9344;52.294;13.626;2022-11-09T02:40:08;11.90;99.90
18434;DHT22;9344;52.294;13.626;2022-11-09T02:42:36;11.90;99.90
18434;DHT22;9344;52.294;13.626;2022-11-09T02:45:03;11.90;99.90
18434;DHT22;9344;52.294;13.626;2022-11-09T02:47:29;11.80;99.90
18434;DHT22;9344;52.294;13.626;2022-11-09T02:49:56;11.80;99.90
18434;DHT22;9344;52.294;13.626;2022-11-09T02:52:23;11.80;99.90
18434;DHT22;9344;52.294;13.626;2022-11-09T02:54:50;11.70;99.90
18434;DHT22;9344;52.294;13.626;2022-11-09T02:57:17;11.70;99.90
18434;DHT22;9344;52.294;13.626;2022-11-09T02:59:43;11.70;99.90
18434;DHT22;9344;52.294;13.626;2022-11-09T03:02:10;11.60;99.90
18434;DHT22;9344;52.294;13.626;2022-11-09T03:04:36;11.60;99.90
18434;DHT22;9344;52.294;13.626;2022-11-09T03:07:03;11.60;99.90
18434;DHT22;9344;52.294;13.626;2022-11-09T03:09:29;11.60;99.90
18434;DHT22;9344;52.294;13.626;2022-11-09T03:11:57;11.60;99.90
18434;DHT22;9344;52.294;13.626;2022-11-09T03:14:44;11.60;99.90
18434;DHT22;9344;52.294;13.626;2022-11-09T03:17:11;11.60;99.90
18434;DHT22;9344;52.294;13.626;2022-11-09T03:19:38;11.60;99.90
18434;DHT22;9344;52.294;13.626;2022-11-09T03:22:04;11.60;99.90
18434;DHT22;9344;52.294;13.626;2022-11-09T03:24:31;11.60;99.90
18434;DHT22;9344;52.294;13.626;2022-11-09T03:26:59;11.60;99.90
18434;DHT22;9344;52.294;13.626;2022-11-09T03:29:25;11.50;99.90
18434;DHT22;9344;52.294;13.626;2022-11-09T03:31:52;11.60;99.90
18434;DHT22;9344;52.294;13.626;2022-11-09T03:34:18;11.50;99.90
18434;DHT22;9344;52.294;13.626;2022-11-09T03:36:45;11.50;99.90
18434;DHT22;9344;52.294;13.626;2022-11-09T03:39:11;11.60;99.90
18434;DHT22;9344;52.294;13.626;2022-11-09T03:41:38;11.50;99.90
18434;DHT22;9344;52.294;13.626;2022-11-09T03:44:05;11.60;99.90
18434;DHT22;9344;52.294;13.626;2022-11-09T03:46:32;11.60;99.90
18434;DHT22;9344;52.294;13.626;2022-11-09T03:48:59;11.60;99.90
18434;DHT22;9344;52.294;13.626;2022-11-09T03:51:25;11.60;99.90
18434;DHT22;9344;52.294;13.626;2022-11-09T03:53:52;11.60;99.90
18434;DHT22;9344;52.294;13.626;2022-11-09T03:56:18;11.60;99.90
18434;DHT22;9344;52.294;13.626;2022-11-09T03:58:45;11.70;99.90
18434;DHT22;9344;52.294;13.626;2022-11-09T04:01:13;11.70;99.90
18434;DHT22;9344;52.294;13.626;2022-11-09T04:03:39;11.70;99.90
18434;DHT22;9344;52.294;13.626;2022-11-09T04:06:06;11.70;99.90
18434;DHT22;9344;52.294;13.626;2022-11-09T04:08:32;11.70;99.90
18434;DHT22;9344;52.294;13.626;2022-11-09T04:10:59;11.70;99.90
18434;DHT22;9344;52.294;13.626;2022-11-09T04:13:25;11.80;99.90
18434;DHT22;9344;52.294;13.626;2022-11-09T04:15:52;11.80;99.90
18434;DHT22;9344;52.294;13.626;2022-11-09T04:18:20;11.80;99.90
18434;DHT22;9344;52.294;13.626;2022-11-09T04:20:46;11.90;99.90
18434;DHT22;9344;52.294;13.626;2022-11-09T04:23:13;11.90;99.90
18434;DHT22;9344;52.294;13.626;2022-11-09T04:25:40;11.90;99.90
18434;DHT22;9344;52.294;13.626;2022-11-09T04:28:10;11.90;99.90
18434;DHT22;9344;52.294;13.626;2022-11-09T04:30:37;12.00;99.90
18434;DHT22;9344;52.294;13.626;2022-11-09T04:33:04;11.90;99.90
18434;DHT22;9344;52.294;13.626;2022-11-09T04:35:33;12.00;99.90
18434;DHT22;9344;52.294;13.626;2022-11-09T04:38:01;12.00;99.90
18434;DHT22;9344;52.294;13.626;2022-11-09T04:40:29;12.00;99.90
18434;DHT22;9344;52.294;13.626;2022-11-09T04:42:58;12.00;99.90
18434;DHT22;9344;52.294;13.626;2022-11-09T04:45:25;12.10;99.90
18434;DHT22;9344;52.294;13.626;2022-11-09T04:47:56;12.10;99.90
18434;DHT22;9344;52.294;13.626;2022-11-09T04:50:22;12.20;99.90
18434;DHT22;9344;52.294;13.626;2022-11-09T04:52:50;12.10;99.90
18434;DHT22;9344;52.294;13.626;2022-11-09T04:55:17;12.20;99.90
18434;DHT22;9344;52.294;13.626;2022-11-09T04:57:43;12.10;99.90
18434;DHT22;9344;52.294;13.626;2022-11-09T05:00:10;12.10;99.90
18434;DHT22;9344;52.294;13.626;2022-11-09T05:02:37;12.10;99.90
18434;DHT22;9344;52.294;13.626;2022-11-09T05:05:05;12.10;99.90
18434;DHT22;9344;52.294;13.626;2022-11-09T05:07:31;12.10;99.90
18434;DHT22;9344;52.294;13.626;2022-11-09T05:09:59;12.20;99.90
18434;DHT22;9344;52.294;13.626;2022-11-09T05:12:25;12.20;99.90
18434;DHT22;9344;52.294;13.626;2022-11-09T05:14:52;12.20;99.90
18434;DHT22;9344;52.294;13.626;2022-11-09T05:17:18;12.20;99.90
18434;DHT22;9344;52.294;13.626;2022-11-09T05:19:45;12.20;99.90
18434;DHT22;9344;52.294;13.626;2022-11-09T05:22:11;12.20;99.90
18434;DHT22;9344;52.294;13.626;2022-11-09T05:24:55;12.20;99.90
18434;DHT22;9344;52.294;13.626;2022-11-09T05:27:23;12.20;99.90
18434;DHT22;9344;52.294;13.626;2022-11-09T05:29:49;12.30;99.90
18434;DHT22;9344;52.294;13.626;2022-11-09T05:32:16;12.30;99.90
18434;DHT22;9344;52.294;13.626;2022-11-09T05:34:42;12.30;99.90
18434;DHT22;9344;52.294;13.626;2022-11-09T05:37:09;12.40;99.90
18434;DHT22;9344;52.294;13.626;2022-11-09T05:39:35;12.30;99.90
18434;DHT22;9344;52.294;13.626;2022-11-09T05:42:02;12.30;99.90
18434;DHT22;9344;52.294;13.626;2022-11-09T05:44:30;12.30;99.90
18434;DHT22;9344;52.294;13.626;2022-11-09T05:46:56;12.30;99.90
18434;DHT22;9344;52.294;13.626;2022-11-09T05:49:22;12.30;99.90
18434;DHT22;9344;52.294;13.626;2022-11-09T05:51:49;12.30;99.90
18434;DHT22;9344;52.294;13.626;2022-11-09T05:54:15;12.40;99.90
18434;DHT22;9344;52.294;13.626;2022-11-09T05:56:42;12.30;99.90
18434;DHT22;9344;52.294;13.626;2022-11-09T05:59:09;12.30;99.90
18434;DHT22;9344;52.294;13.626;2022-11-09T06:01:36;12.30;99.90
18434;DHT22;9344;52.294;13.626;2022-11-09T06:04:03;12.30;99.90
18434;DHT22;9344;52.294;13.626;2022-11-09T06:06:30;12.30;99.90
18434;DHT22;9344;52.294;13.626;2022-11-09T06:08:56;12.30;99.90
18434;DHT22;9344;52.294;13.626;2022-11-09T06:11:23;12.30;99.90
18434;DHT22;9344;52.294;13.626;2022-11-09T06:13:50;12.30;99.90
18434;DHT22;9344;52.294;13.626;2022-11-09T06:16:16;12.30;99.90
18434;DHT22;9344;52.294;13.626;2022-11-09T06:18:44;12.30;99.90
18434;DHT22;9344;52.294;13.626;2022-11-09T06:21:11;12.30;99.90
18434;DHT22;9344;52.294;13.626;2022-11-09T06:23:37;12.30;99.90
18434;DHT22;9344;52.294;13.626;2022-11-09T06:26:06;12.40;99.90
18434;DHT22;9344;52.294;13.626;2022-11-09T06:28:34;12.30;99.90
18434;DHT22;9344;52.294;13.626;2022-11-09T06:31:02;12.40;99.90
18434;DHT22;9344;52.294;13.626;2022-11-09T06:33:30;12.40;99.90
18434;DHT22;9344;52.294;13.626;2022-11-09T06:35:59;12.40;99.90
18434;DHT22;9344;52.294;13.626;2022-11-09T06:38:26;12.30;99.90
18434;DHT22;9344;52.294;13.626;2022-11-09T06:40:53;12.30;99.90
18434;DHT22;9344;52.294;13.626;2022-11-09T06:43:20;12.40;99.90
18434;DHT22;9344;52.294;13.626;2022-11-09T06:45:47;12.40;99.90
18434;DHT22;9344;52.294;13.626;2022-11-09T06:48:13;12.40;99.90
18434;DHT22;9344;52.294;13.626;2022-11-09T06:50:40;12.40;99.90
18434;DHT22;9344;52.294;13.626;2022-11-09T06:53:10;12.40;99.90
18434;DHT22;9344;52.294;13.626;2022-11-09T06:55:37;12.40;99.90
18434;DHT22;9344;52.294;13.626;2022-11-09T06:58:04;12.50;99.90
18434;DHT22;9344;52.294;13.626;2022-11-09T07:00:31;12.40;99.90
18434;DHT22;9344;52.294;13.626;2022-11-09T07:02:58;12.50;99.90
18434;DHT22;9344;52.294;13.626;2022-11-09T07:05:25;12.50;99.90
18434;DHT22;9344;52.294;13.626;2022-11-09T07:07:51;12.50;99.90
18434;DHT22;9344;52.294;13.626;2022-11-09T07:10:19;12.50;99.90
18434;DHT22;9344;52.294;13.626;2022-11-09T07:12:46;12.50;99.90
18434;DHT22;9344;52.294;13.626;2022-11-09T07:15:12;12.50;99.90
18434;DHT22;9344;52.294;13.626;2022-11-09T07:17:39;12.60;99.90
18434;DHT22;9344;52.294;13.626;2022-11-09T07:20:07;12.50;99.90
18434;DHT22;9344;52.294;13.626;2022-11-09T07:22:34;12.50;99.90
18434;DHT22;9344;52.294;13.626;2022-11-09T07:25:04;12.50;99.90
18434;DHT22;9344;52.294;13.626;2022-11-09T07:27:32;12.60;99.90
18434;DHT22;9344;52.294;13.626;2022-11-09T07:29:59;12.50;99.90
18434;DHT22;9344;52.294;13.626;2022-11-09T07:32:25;12.50;99.90
18434;DHT22;9344;52.294;13.626;2022-11-09T07:34:52;12.60;99.90
18434;DHT22;9344;52.294;13.626;2022-11-09T07:37:18;12.60;99.90
18434;DHT22;9344;52.294;13.626;2022-11-09T07:39:45;12.60;99.90
18434;DHT22;9344;52.294;13.626;2022-11-09T07:42:11;12.60;99.90
18434;DHT22;9344;52.294;13.626;2022-11-09T07:44:40;12.60;99.90
18434;DHT22;9344;52.294;13.626;2022-11-09T07:47:06;12.50;99.90
18434;DHT22;9344;52.294;13.626;2022-11-09T07:49:33;12.50;99.90
18434;DHT22;9344;52.294;13.626;2022-11-09T07:52:00;12.50;99.90
18434;DHT22;9344;52.294;13.626;2022-11-09T07:54:26;12.50;99.90
18434;DHT22;9344;52.294;13.626;2022-11-09T07:56:53;12.50;99.90
18434;DHT22;9344;52.294;13.626;2022-11-09T07:59:19;12.50;99.90
18434;DHT22;9344;52.294;13.626;2022-11-09T08:01:47;12.50;99.90
18434;DHT22;9344;52.294;13.626;2022-11-09T08:04:14;12.50;99.90
18434;DHT22;9344;52.294;13.626;2022-11-09T08:06:40;12.50;99.90
18434;DHT22;9344;52.294;13.626;2022-11-09T08:09:07;12.60;99.90
18434;DHT22;9344;52.294;13.626;2022-11-09T08:11:33;12.50;99.90
18434;DHT22;9344;52.294;13.626;2022-11-09T08:14:00;12.40;99.90
18434;DHT22;9344;52.294;13.626;2022-11-09T08:16:26;12.40;99.90
18434;DHT22;9344;52.294;13.626;2022-11-09T08:18:54;12.40;99.90
18434;DHT22;9344;52.294;13.626;2022-11-09T08:21:21;12.40;99.90
18434;DHT22;9344;52.294;13.626;2022-11-09T08:23:47;12.40;99.90
18434;DHT22;9344;52.294;13.626;2022-11-09T08:26:15;12.40;99.90
18434;DHT22;9344;52.294;13.626;2022-11-09T08:28:42;12.30;99.90
18434;DHT22;9344;52.294;13.626;2022-11-09T08:31:08;12.30;99.90
18434;DHT22;9344;52.294;13.626;2022-11-09T08:33:37;12.20;99.90
18434;DHT22;9344;52.294;13.626;2022-11-09T08:36:13;12.20;99.90
18434;DHT22;9344;52.294;13.626;2022-11-09T08:38:40;12.20;99.90
18434;DHT22;9344;52.294;13.626;2022-11-09T08:41:07;12.20;99.90
18434;DHT22;9344;52.294;13.626;2022-11-09T08:43:33;12.20;99.90
18434;DHT22;9344;52.294;13.626;2022-11-09T08:46:00;12.20;99.90
18434;DHT22;9344;52.294;13.626;2022-11-09T08:48:27;12.10;99.90
18434;DHT22;9344;52.294;13.626;2022-11-09T08:50:54;12.10;99.90
18434;DHT22;9344;52.294;13.626;2022-11-09T08:53:24;12.10;99.90
18434;DHT22;9344;52.294;13.626;2022-11-09T08:55:51;12.10;99.90
18434;DHT22;9344;52.294;13.626;2022-11-09T08:58:18;12.20;99.90
18434;DHT22;9344;52.294;13.626;2022-11-09T09:00:45;12.10;99.90
18434;DHT22;9344;52.294;13.626;2022-11-09T09:03:11;12.10;99.90
18434;DHT22;9344;52.294;13.626;2022-11-09T09:05:38;12.10;99.90
18434;DHT22;9344;52.294;13.626;2022-11-09T09:08:05;12.10;99.90
18434;DHT22;9344;52.294;13.626;2022-11-09T09:10:34;12.20;99.90
18434;DHT22;9344;52.294;13.626;2022-11-09T09:13:01;12.20;99.90
18434;DHT22;9344;52.294;13.626;2022-11-09T09:15:27;12.20;99.90
18434;DHT22;9344;52.294;13.626;2022-11-09T09:17:54;12.30;99.90
18434;DHT22;9344;52.294;13.626;2022-11-09T09:20:20;12.30;99.90
18434;DHT22;9344;52.294;13.626;2022-11-09T09:22:47;12.40;99.90
18434;DHT22;9344;52.294;13.626;2022-11-09T09:25:13;12.40;99.90
18434;DHT22;9344;52.294;13.626;2022-11-09T09:27:43;12.40;99.90
18434;DHT22;9344;52.294;13.626;2022-11-09T09:30:11;12.40;99.90
18434;DHT22;9344;52.294;13.626;2022-11-09T09:32:38;12.50;99.90
18434;DHT22;9344;52.294;13.626;2022-11-09T09:35:05;12.50;99.90
18434;DHT22;9344;52.294;13.626;2022-11-09T09:37:31;12.40;99.90
18434;DHT22;9344;52.294;13.626;2022-11-09T09:39:58;12.50;99.90
18434;DHT22;9344;52.294;13.626;2022-11-09T09:42:30;12.50;99.90
18434;DHT22;9344;52.294;13.626;2022-11-09T09:45:01;12.60;99.90
18434;DHT22;9344;52.294;13.626;2022-11-09T09:47:38;12.50;99.90
18434;DHT22;9344;52.294;13.626;2022-11-09T09:50:11;12.60;99.90
18434;DHT22;9344;52.294;13.626;2022-11-09T09:52:41;12.60;99.90
18434;DHT22;9344;52.294;13.626;2022-11-09T09:55:16;12.60;99.90
18434;DHT22;9344;52.294;13.626;2022-11-09T09:57:49;12.60;99.90
18434;DHT22;9344;52.294;13.626;2022-11-09T10:00:21;12.60;99.90
18434;DHT22;9344;52.294;13.626;2022-11-09T10:02:48;12.60;99.90
18434;DHT22;9344;52.294;13.626;2022-11-09T10:05:18;12.60;99.90
18434;DHT22;9344;52.294;13.626;2022-11-09T10:07:51;12.60;99.90
18434;DHT22;9344;52.294;13.626;2022-11-09T10:10:37;12.60;99.90
18434;DHT22;9344;52.294;13.626;2022-11-09T10:13:21;12.70;99.90
18434;DHT22;9344;52.294;13.626;2022-11-09T10:15:58;12.80;99.90
18434;DHT22;9344;52.294;13.626;2022-11-09T10:18:37;12.80;99.90
18434;DHT22;9344;52.294;13.626;2022-11-09T10:21:15;12.80;99.90
18434;DHT22;9344;52.294;13.626;2022-11-09T10:23:53;12.80;99.90
18434;DHT22;9344;52.294;13.626;2022-11-09T10:26:28;12.80;99.90
18434;DHT22;9344;52.294;13.626;2022-11-09T10:29:00;12.80;99.90
18434;DHT22;9344;52.294;13.626;2022-11-09T10:31:32;12.80;99.90
18434;DHT22;9344;52.294;13.626;2022-11-09T10:34:02;12.80;99.90
18434;DHT22;9344;52.294;13.626;2022-11-09T10:36:41;12.80;99.90
18434;DHT22;9344;52.294;13.626;2022-11-09T10:39:13;12.90;99.90
18434;DHT22;9344;52.294;13.626;2022-11-09T10:41:43;12.90;99.90
18434;DHT22;9344;52.294;13.626;2022-11-09T10:44:13;12.90;99.90
18434;DHT22;9344;52.294;13.626;2022-11-09T10:47:09;13.00;99.90
18434;DHT22;9344;52.294;13.626;2022-11-09T10:49:37;13.00;99.90
18434;DHT22;9344;52.294;13.626;2022-11-09T10:52:04;13.00;99.90
18434;DHT22;9344;52.294;13.626;2022-11-09T10:54:32;13.10;99.90
18434;DHT22;9344;52.294;13.626;2022-11-09T10:57:08;13.10;99.90
18434;DHT22;9344;52.294;13.626;2022-11-09T10:59:43;13.20;99.90
18434;DHT22;9344;52.294;13.626;2022-11-09T11:02:39;13.20;99.90
18434;DHT22;9344;52.294;13.626;2022-11-09T11:08:21;13.30;99.90
18434;DHT22;9344;52.294;13.626;2022-11-09T11:10:48;13.30;99.90
18434;DHT22;9344;52.294;13.626;2022-11-09T11:13:22;13.20;99.90
18434;DHT22;9344;52.294;13.626;2022-11-09T11:15:49;13.30;99.90
18434;DHT22;9344;52.294;13.626;2022-11-09T11:18:20;13.30;99.90
18434;DHT22;9344;52.294;13.626;2022-11-09T11:20:47;13.30;99.90
18434;DHT22;9344;52.294;13.626;2022-11-09T11:23:16;13.40;99.90
18434;DHT22;9344;52.294;13.626;2022-11-09T11:26:16;13.40;99.90
18434;DHT22;9344;52.294;13.626;2022-11-09T11:28:49;13.50;99.90
18434;DHT22;9344;52.294;13.626;2022-11-09T11:31:18;13.50;99.90
18434;DHT22;9344;52.294;13.626;2022-11-09T11:33:46;13.60;99.90
18434;DHT22;9344;52.294;13.626;2022-11-09T11:36:18;13.70;99.90
18434;DHT22;9344;52.294;13.626;2022-11-09T11:38:53;13.80;99.90
18434;DHT22;9344;52.294;13.626;2022-11-09T11:41:37;13.90;99.90
18434;DHT22;9344;52.294;13.626;2022-11-09T11:44:14;14.00;99.90
18434;DHT22;9344;52.294;13.626;2022-11-09T11:46:46;13.90;99.90
18434;DHT22;9344;52.294;13.626;2022-11-09T11:52:27;14.00;99.90
18434;DHT22;9344;52.294;13.626;2022-11-09T11:55:08;14.10;99.90
18434;DHT22;9344;52.294;13.626;2022-11-09T11:57:47;14.10;99.90
18434;DHT22;9344;52.294;13.626;2022-11-09T12:00:19;14.20;99.90
18434;DHT22;9344;52.294;13.626;2022-11-09T12:03:04;14.30;99.90
18434;DHT22;9344;52.294;13.626;2022-11-09T12:06:02;14.40;99.90
18434;DHT22;9344;52.294;13.626;2022-11-09T12:08:37;14.50;99.90
18434;DHT22;9344;52.294;13.626;2022-11-09T12:11:12;14.50;99.90
18434;DHT22;9344;52.294;13.626;2022-11-09T12:13:52;14.60;99.90
18434;DHT22;9344;52.294;13.626;2022-11-09T12:16:24;14.50;99.90
18434;DHT22;9344;52.294;13.626;2022-11-09T12:19:13;14.70;99.90
18434;DHT22;9344;52.294;13.626;2022-11-09T12:21:50;14.80;99.90
18434;DHT22;9344;52.294;13.626;2022-11-09T12:24:26;14.80;99.90
18434;DHT22;9344;52.294;13.626;2022-11-09T12:27:11;14.90;99.90
18434;DHT22;9344;52.294;13.626;2022-11-09T12:29:49;14.90;99.90
18434;DHT22;9344;52.294;13.626;2022-11-09T12:32:28;14.90;99.90
18434;DHT22;9344;52.294;13.626;2022-11-09T12:35:10;15.00;99.90
18434;DHT22;9344;52.294;13.626;2022-11-09T12:37:47;14.90;99.90
18434;DHT22;9344;52.294;13.626;2022-11-09T12:40:25;14.90;99.90
18434;DHT22;9344;52.294;13.626;2022-11-09T12:42:58;14.90;99.90
18434;DHT22;9344;52.294;13.626;2022-11-09T12:45:29;14.90;99.90
18434;DHT22;9344;52.294;13.626;2022-11-09T12:48:00;14.90;99.90
18434;DHT22;9344;52.294;13.626;2022-11-09T12:50:30;14.90;99.90
18434;DHT22;9344;52.294;13.626;2022-11-09T12:53:01;14.90;99.90
18434;DHT22;9344;52.294;13.626;2022-11-09T12:55:34;14.90;99.90
18434;DHT22;9344;52.294;13.626;2022-11-09T12:58:03;14.90;99.90
18434;DHT22;9344;52.294;13.626;2022-11-09T13:00:46;14.90;99.90
18434;DHT22;9344;52.294;13.626;2022-11-09T13:03:18;14.90;99.90
18434;DHT22;9344;52.294;13.626;2022-11-09T13:05:46;14.90;99.90
18434;DHT22;9344;52.294;13.626;2022-11-09T13:08:18;15.00;99.90
18434;DHT22;9344;52.294;13.626;2022-11-09T13:10:45;15.00;99.90
18434;DHT22;9344;52.294;13.626;2022-11-09T13:13:20;15.10;99.90
18434;DHT22;9344;52.294;13.626;2022-11-09T13:16:08;15.20;99.90
18434;DHT22;9344;52.294;13.626;2022-11-09T13:18:51;15.20;99.90
18434;DHT22;9344;52.294;13.626;2022-11-09T13:21:36;15.20;99.90
18434;DHT22;9344;52.294;13.626;2022-11-09T13:27:34;15.30;99.90
18434;DHT22;9344;52.294;13.626;2022-11-09T13:30:15;15.40;99.90
18434;DHT22;9344;52.294;13.626;2022-11-09T13:33:15;15.40;99.90
18434;DHT22;9344;52.294;13.626;2022-11-09T13:38:40;15.50;99.90
18434;DHT22;9344;52.294;13.626;2022-11-09T13:41:41;15.40;99.90
18434;DHT22;9344;52.294;13.626;2022-11-09T13:44:20;15.40;99.90
18434;DHT22;9344;52.294;13.626;2022-11-09T13:46:48;15.40;99.90
18434;DHT22;9344;52.294;13.626;2022-11-09T13:49:41;15.40;99.90
18434;DHT22;9344;52.294;13.626;2022-11-09T13:52:46;15.40;99.90
18434;DHT22;9344;52.294;13.626;2022-11-09T13:55:34;15.50;99.90
18434;DHT22;9344;52.294;13.626;2022-11-09T14:00:46;15.50;99.90
18434;DHT22;9344;52.294;13.626;2022-11-09T14:03:19;15.50;99.90
18434;DHT22;9344;52.294;13.626;2022-11-09T14:05:50;15.50;99.90
18434;DHT22;9344;52.294;13.626;2022-11-09T14:08:21;15.40;99.90
18434;DHT22;9344;52.294;13.626;2022-11-09T14:10:58;15.40;99.90
18434;DHT22;9344;52.294;13.626;2022-11-09T14:13:44;15.40;99.90
18434;DHT22;9344;52.294;13.626;2022-11-09T14:16:21;15.40;99.90
18434;DHT22;9344;52.294;13.626;2022-11-09T14:19:00;15.40;99.90
18434;DHT22;9344;52.294;13.626;2022-11-09T14:21:39;15.30;99.90
18434;DHT22;9344;52.294;13.626;2022-11-09T14:24:14;15.20;99.90
18434;DHT22;9344;52.294;13.626;2022-11-09T14:27:00;15.30;99.90
18434;DHT22;9344;52.294;13.626;2022-11-09T14:29:27;15.20;99.90
18434;DHT22;9344;52.294;13.626;2022-11-09T14:31:58;15.90;99.90
18434;DHT22;9344;52.294;13.626;2022-11-09T14:34:24;15.20;99.90
18434;DHT22;9344;52.294;13.626;2022-11-09T14:36:52;15.20;99.90
18434;DHT22;9344;52.294;13.626;2022-11-09T14:39:24;15.10;99.90
18434;DHT22;9344;52.294;13.626;2022-11-09T14:41:53;15.00;99.90
18434;DHT22;9344;52.294;13.626;2022-11-09T14:44:24;15.00;99.90
18434;DHT22;9344;52.294;13.626;2022-11-09T14:46:51;14.90;99.90
18434;DHT22;9344;52.294;13.626;2022-11-09T14:49:19;14.90;99.90
18434;DHT22;9344;52.294;13.626;2022-11-09T14:51:46;14.90;99.90
18434;DHT22;9344;52.294;13.626;2022-11-09T14:54:16;14.90;99.90
18434;DHT22;9344;52.294;13.626;2022-11-09T14:56:43;14.90;99.90
18434;DHT22;9344;52.294;13.626;2022-11-09T14:59:13;14.80;99.90
18434;DHT22;9344;52.294;13.626;2022-11-09T15:01:40;14.80;99.90
18434;DHT22;9344;52.294;13.626;2022-11-09T15:04:21;14.80;99.90
18434;DHT22;9344;52.294;13.626;2022-11-09T15:06:50;14.70;99.90
18434;DHT22;9344;52.294;13.626;2022-11-09T15:09:21;14.70;99.90
18434;DHT22;9344;52.294;13.626;2022-11-09T15:11:49;14.70;99.90
18434;DHT22;9344;52.294;13.626;2022-11-09T15:14:25;14.70;99.90
18434;DHT22;9344;52.294;13.626;2022-11-09T15:16:58;14.60;99.90
18434;DHT22;9344;52.294;13.626;2022-11-09T15:19:28;14.50;99.90
18434;DHT22;9344;52.294;13.626;2022-11-09T15:21:55;14.50;99.90
18434;DHT22;9344;52.294;13.626;2022-11-09T15:24:24;14.40;99.90
18434;DHT22;9344;52.294;13.626;2022-11-09T15:26:52;14.40;99.90
18434;DHT22;9344;52.294;13.626;2022-11-09T15:29:35;14.40;99.90
18434;DHT22;9344;52.294;13.626;2022-11-09T15:32:12;14.40;99.90
18434;DHT22;9344;52.294;13.626;2022-11-09T15:34:40;14.30;99.90
18434;DHT22;9344;52.294;13.626;2022-11-09T15:37:22;14.30;99.90
18434;DHT22;9344;52.294;13.626;2022-11-09T15:39:51;14.20;99.90
18434;DHT22;9344;52.294;13.626;2022-11-09T15:42:17;14.10;99.90
18434;DHT22;9344;52.294;13.626;2022-11-09T15:44:44;14.10;99.90
18434;DHT22;9344;52.294;13.626;2022-11-09T15:47:20;14.10;99.90
18434;DHT22;9344;52.294;13.626;2022-11-09T15:49:47;14.00;99.90
18434;DHT22;9344;52.294;13.626;2022-11-09T15:52:14;13.90;99.90
18434;DHT22;9344;52.294;13.626;2022-11-09T15:54:41;13.90;99.90
18434;DHT22;9344;52.294;13.626;2022-11-09T15:57:14;13.90;99.90
18434;DHT22;9344;52.294;13.626;2022-11-09T15:59:43;13.80;99.90
18434;DHT22;9344;52.294;13.626;2022-11-09T16:02:09;13.80;99.90
18434;DHT22;9344;52.294;13.626;2022-11-09T16:04:37;13.80;99.90